Time;durP1;ratioP1;P1;durP2;ratioP2;P2;SDS_P1;SDS_P2;PMS_P1;PMS_P2;Temp;Humidity;BMP_temperature;BMP_pressure;BME280_temperature;BME280_humidity;BME280_pressure;Samples;Min_cycle;Max_cycle;Signal;HPM_P1;HPM_P2
2022/04/01 00:02:24;;;;;;;5.55;2.45;;;;;;;;;;4988831;28;20042;-69
2022/04/01 00:04:50;;;;;;;5.43;2.25;;;;;;;;;;4964858;28;20096;-68
2022/04/01 00:07:16;;;;;;;4.90;1.95;;;;;;;;;;4985382;28;20049;-68
2022/04/01 00:09:42;;;;;;;3.42;1.55;;;;;;;;;;4973916;28;20043;-68
2022/04/01 00:12:08;;;;;;;4.43;1.80;;;;;;;;;;4988223;28;20047;-68
2022/04/01 00:14:34;;;;;;;3.20;1.40;;;;;;;;;;4979587;28;20058;-69
2022/04/01 00:17:00;;;;;;;5.72;1.58;;;;;;;;;;4987787;28;20056;-68
2022/04/01 00:19:27;;;;;;;4.35;1.80;;;;;;;;;;4970262;28;20121;-69
2022/04/01 00:21:53;;;;;;;6.38;1.85;;;;;;;;;;4987165;28;20039;-69
2022/04/01 00:24:19;;;;;;;5.03;2.05;;;;;;;;;;4987668;28;20038;-68
2022/04/01 00:26:45;;;;;;;8.68;2.00;;;;;;;;;;4989413;28;20638;-69
2022/04/01 00:29:15;;;;;;;5.07;1.80;;;;;;;;;;4989275;28;20042;-68
2022/04/01 00:31:42;;;;;;;4.78;1.48;;;;;;;;;;4970776;28;20050;-69
2022/04/01 00:34:18;;;;;;;5.15;2.00;;;;;;;;;;4988756;28;20125;-69
2022/04/01 00:36:48;;;;;;;4.93;2.08;;;;;;;;;;4988623;28;20042;-69
2022/04/01 00:39:15;;;;;;;5.97;1.95;;;;;;;;;;4988743;28;20105;-68
2022/04/01 00:41:42;;;;;;;3.85;1.52;;;;;;;;;;4953266;28;1039588;-68
2022/04/01 00:44:19;;;;;;;9.05;1.85;;;;;;;;;;4989505;28;20068;-68
2022/04/01 00:46:47;;;;;;;4.13;1.50;;;;;;;;;;4992284;28;20058;-69
2022/04/01 00:49:13;;;;;;;4.00;1.58;;;;;;;;;;4963889;28;20116;-69
2022/04/01 00:51:41;;;;;;;6.50;2.15;;;;;;;;;;4988084;28;20034;-69
2022/04/01 00:54:08;;;;;;;6.57;2.00;;;;;;;;;;4964529;28;20084;-67
2022/04/01 00:56:35;;;;;;;5.15;1.77;;;;;;;;;;4966653;28;20049;-68
2022/04/01 00:59:02;;;;;;;4.93;1.60;;;;;;;;;;4975082;28;20046;-68
2022/04/01 01:01:28;;;;;;;5.60;2.10;;;;;;;;;;4985711;28;20505;-68
2022/04/01 01:03:54;;;;;;;4.97;1.80;;;;;;;;;;4990763;28;20084;-68
2022/04/01 01:06:21;;;;;;;5.82;1.70;;;;;;;;;;4993417;28;20132;-68
2022/04/01 01:08:47;;;;;;;4.55;1.80;;;;;;;;;;4986781;28;20050;-68
2022/04/01 01:11:14;;;;;;;6.47;1.73;;;;;;;;;;4992585;28;20054;-68
2022/04/01 01:13:40;;;;;;;5.22;1.70;;;;;;;;;;4983413;28;20086;-68
2022/04/01 01:16:07;;;;;;;5.15;2.05;;;;;;;;;;4992730;28;20050;-68
2022/04/01 01:18:33;;;;;;;5.40;2.08;;;;;;;;;;4991737;28;20046;-68
2022/04/01 01:20:59;;;;;;;4.13;1.77;;;;;;;;;;4991563;28;20509;-68
2022/04/01 01:23:32;;;;;;;5.85;1.73;;;;;;;;;;4979234;28;20101;-67
2022/04/01 01:25:58;;;;;;;5.80;1.88;;;;;;;;;;4989504;28;20043;-68
2022/04/01 01:28:25;;;;;;;6.68;2.05;;;;;;;;;;4990600;28;20469;-68
2022/04/01 01:30:51;;;;;;;4.72;1.77;;;;;;;;;;4992354;28;20046;-68
2022/04/01 01:33:20;;;;;;;5.20;1.55;;;;;;;;;;4984919;28;20054;-68
2022/04/01 01:35:47;;;;;;;6.28;2.50;;;;;;;;;;4987966;28;20444;-68
2022/04/01 01:38:16;;;;;;;4.75;1.45;;;;;;;;;;4990099;28;20046;-68
2022/04/01 01:40:42;;;;;;;4.28;1.65;;;;;;;;;;4989033;28;20063;-68
2022/04/01 01:43:09;;;;;;;4.32;2.00;;;;;;;;;;4990044;28;20054;-68
2022/04/01 01:45:35;;;;;;;4.20;1.50;;;;;;;;;;4978144;28;20551;-68
2022/04/01 01:48:01;;;;;;;4.75;1.48;;;;;;;;;;4980679;28;20077;-68
2022/04/01 01:55:57;;;;;;;5.55;1.67;;;;;;;;;;4987028;28;20047;-68
2022/04/01 01:58:23;;;;;;;4.43;1.85;;;;;;;;;;4989831;28;20046;-68
2022/04/01 02:00:50;;;;;;;7.35;1.98;;;;;;;;;;4992329;28;20387;-68
2022/04/01 02:03:17;;;;;;;2.67;1.23;;;;;;;;;;4989237;28;20498;-68
2022/04/01 02:05:43;;;;;;;4.13;1.50;;;;;;;;;;4991935;28;20046;-68
2022/04/01 02:08:09;;;;;;;4.50;1.58;;;;;;;;;;4992336;28;20452;-68
2022/04/01 02:10:35;;;;;;;5.55;1.95;;;;;;;;;;4989355;28;20470;-68
2022/04/01 02:13:01;;;;;;;5.95;1.30;;;;;;;;;;4965380;28;20097;-68
2022/04/01 02:15:27;;;;;;;6.20;1.85;;;;;;;;;;4991329;28;20048;-68
2022/04/01 02:17:53;;;;;;;5.15;1.95;;;;;;;;;;4982874;28;20043;-68
2022/04/01 02:20:19;;;;;;;6.03;1.73;;;;;;;;;;4989329;28;20049;-68
2022/04/01 02:22:45;;;;;;;4.10;1.40;;;;;;;;;;4986907;28;20058;-68
2022/04/01 02:25:12;;;;;;;4.80;1.55;;;;;;;;;;4995394;28;20039;-68
2022/04/01 02:27:38;;;;;;;7.10;1.80;;;;;;;;;;4980094;28;20053;-68
2022/04/01 02:30:11;;;;;;;5.43;1.80;;;;;;;;;;4961335;28;20050;-68
2022/04/01 02:32:41;;;;;;;4.18;1.55;;;;;;;;;;4985819;28;20043;-68
2022/04/01 02:35:07;;;;;;;5.00;1.75;;;;;;;;;;4986321;28;20047;-68
2022/04/01 02:37:34;;;;;;;7.13;1.80;;;;;;;;;;4983689;28;20126;-68
2022/04/01 02:40:00;;;;;;;4.80;1.83;;;;;;;;;;4971060;28;20108;-68
2022/04/01 02:42:26;;;;;;;6.75;2.10;;;;;;;;;;4994752;28;20038;-69
2022/04/01 02:44:52;;;;;;;7.03;1.60;;;;;;;;;;4994467;28;20057;-69
2022/04/01 02:47:20;;;;;;;5.18;1.45;;;;;;;;;;4991698;28;20046;-66
2022/04/01 02:49:46;;;;;;;5.15;1.80;;;;;;;;;;4988139;28;20402;-67
2022/04/01 02:52:13;;;;;;;5.03;1.80;;;;;;;;;;4981960;28;20035;-69
2022/04/01 02:54:39;;;;;;;6.15;1.90;;;;;;;;;;4987890;28;20559;-68
2022/04/01 02:57:05;;;;;;;3.63;1.40;;;;;;;;;;4979774;28;20054;-68
2022/04/01 02:59:31;;;;;;;3.53;1.40;;;;;;;;;;4976633;28;20161;-68
2022/04/01 03:01:57;;;;;;;6.18;1.80;;;;;;;;;;4984297;28;20062;-68
2022/04/01 03:04:23;;;;;;;5.10;1.85;;;;;;;;;;4983128;28;20049;-66
2022/04/01 03:06:50;;;;;;;5.32;2.00;;;;;;;;;;4966664;28;20051;-68
2022/04/01 03:09:16;;;;;;;7.10;1.90;;;;;;;;;;4983270;28;20046;-68
2022/04/01 03:11:42;;;;;;;6.95;2.00;;;;;;;;;;4975296;28;20418;-68
2022/04/01 03:14:09;;;;;;;8.25;2.00;;;;;;;;;;4990380;28;20034;-69
2022/04/01 03:16:36;;;;;;;6.32;1.88;;;;;;;;;;4992433;28;20551;-69
2022/04/01 03:19:02;;;;;;;7.50;2.47;;;;;;;;;;4994313;28;20050;-69
2022/04/01 03:21:29;;;;;;;5.03;2.00;;;;;;;;;;4990550;28;20061;-68
2022/04/01 03:23:55;;;;;;;5.38;2.05;;;;;;;;;;4988986;28;20050;-69
2022/04/01 03:26:21;;;;;;;7.63;2.20;;;;;;;;;;4994931;28;20191;-69
2022/04/01 03:28:48;;;;;;;5.25;1.75;;;;;;;;;;4974509;28;20047;-68
2022/04/01 03:31:15;;;;;;;4.55;1.63;;;;;;;;;;4973165;28;20051;-69
2022/04/01 03:33:41;;;;;;;4.60;1.42;;;;;;;;;;4984865;28;20043;-69
2022/04/01 03:36:08;;;;;;;4.88;1.73;;;;;;;;;;4992796;28;20489;-69
2022/04/01 03:38:34;;;;;;;6.78;1.92;;;;;;;;;;4993187;28;21560;-69
2022/04/01 03:41:01;;;;;;;4.85;1.90;;;;;;;;;;4975836;28;20110;-66
2022/04/01 03:43:27;;;;;;;5.80;1.90;;;;;;;;;;4983171;28;20089;-68
2022/04/01 03:45:54;;;;;;;4.82;1.80;;;;;;;;;;4991463;28;20058;-68
2022/04/01 03:48:31;;;;;;;7.18;2.22;;;;;;;;;;4991588;28;20486;-68
2022/04/01 03:50:58;;;;;;;6.20;2.00;;;;;;;;;;4987284;28;20101;-68
2022/04/01 03:53:28;;;;;;;5.18;1.77;;;;;;;;;;4981704;28;20050;-68
2022/04/01 03:55:55;;;;;;;6.73;2.20;;;;;;;;;;4977795;28;20125;-67
2022/04/01 03:58:26;;;;;;;4.95;1.45;;;;;;;;;;4975057;28;20373;-68
2022/04/01 04:00:53;;;;;;;4.90;1.67;;;;;;;;;;4993590;28;20050;-68
2022/04/01 04:03:19;;;;;;;7.38;1.55;;;;;;;;;;4964007;28;20387;-68
2022/04/01 04:05:48;;;;;;;6.47;1.85;;;;;;;;;;4989851;28;20085;-68
2022/04/01 04:08:17;;;;;;;4.85;1.58;;;;;;;;;;4991953;28;20141;-68
2022/04/01 04:10:46;;;;;;;6.50;2.08;;;;;;;;;;4992171;28;20043;-69
2022/04/01 04:13:12;;;;;;;7.32;1.60;;;;;;;;;;4979672;28;20043;-69
2022/04/01 04:15:42;;;;;;;5.03;1.33;;;;;;;;;;4989336;28;20038;-69
2022/04/01 04:18:12;;;;;;;6.18;1.90;;;;;;;;;;4986365;28;20508;-68
2022/04/01 04:21:04;;;;;;;5.05;1.98;;;;;;;;;;4987209;28;20054;-68
2022/04/01 04:23:35;;;;;;;4.78;1.58;;;;;;;;;;4944810;28;20054;-68
2022/04/01 04:26:04;;;;;;;5.00;1.85;;;;;;;;;;4993093;28;20046;-68
2022/04/01 04:28:35;;;;;;;5.70;1.65;;;;;;;;;;4991716;28;20514;-68
2022/04/01 04:31:03;;;;;;;4.93;1.48;;;;;;;;;;4989009;28;20046;-68
2022/04/01 04:33:31;;;;;;;5.45;1.58;;;;;;;;;;4982855;28;20494;-68
2022/04/01 04:35:59;;;;;;;4.22;1.40;;;;;;;;;;4992141;28;20038;-67
2022/04/01 04:38:26;;;;;;;7.05;1.60;;;;;;;;;;4989434;28;20514;-67
2022/04/01 04:40:52;;;;;;;4.95;1.63;;;;;;;;;;4980170;28;20058;-67
2022/04/01 04:43:21;;;;;;;4.18;1.42;;;;;;;;;;4985945;28;20058;-68
2022/04/01 04:45:49;;;;;;;4.90;1.48;;;;;;;;;;4989989;28;20047;-68
2022/04/01 04:48:16;;;;;;;6.82;1.73;;;;;;;;;;4990337;28;20058;-68
2022/04/01 04:50:46;;;;;;;5.35;1.52;;;;;;;;;;4991436;28;20043;-68
2022/04/01 04:53:13;;;;;;;6.32;1.75;;;;;;;;;;4991901;28;20050;-68
2022/04/01 04:55:40;;;;;;;6.60;1.83;;;;;;;;;;4979775;28;20053;-68
2022/04/01 04:58:09;;;;;;;4.07;1.55;;;;;;;;;;4982838;28;20046;-66
2022/04/01 05:00:36;;;;;;;5.10;2.00;;;;;;;;;;4981549;28;20130;-67
2022/04/01 05:03:16;;;;;;;5.30;1.90;;;;;;;;;;4976265;28;20056;-68
2022/04/01 05:05:44;;;;;;;8.63;1.80;;;;;;;;;;4991256;28;20054;-68
2022/04/01 05:08:28;;;;;;;7.93;1.65;;;;;;;;;;4977990;28;20055;-68
2022/04/01 05:10:54;;;;;;;5.47;1.92;;;;;;;;;;4986281;28;20076;-68
2022/04/01 05:13:20;;;;;;;3.22;1.00;;;;;;;;;;4992398;28;20413;-68
2022/04/01 05:15:50;;;;;;;4.90;1.48;;;;;;;;;;4986854;28;20050;-68
2022/04/01 05:18:19;;;;;;;4.28;1.70;;;;;;;;;;4973907;28;20097;-68
2022/04/01 05:20:50;;;;;;;4.63;1.58;;;;;;;;;;4989163;28;20093;-68
2022/04/01 05:23:20;;;;;;;5.28;1.80;;;;;;;;;;4971205;28;20046;-68
2022/04/01 05:25:57;;;;;;;5.00;1.70;;;;;;;;;;4981061;28;20058;-68
2022/04/01 05:28:25;;;;;;;5.88;1.60;;;;;;;;;;4988250;28;20493;-68
2022/04/01 05:30:57;;;;;;;5.75;1.90;;;;;;;;;;4985299;28;20062;-67
2022/04/01 05:33:26;;;;;;;4.82;1.65;;;;;;;;;;4978952;28;20126;-68
2022/04/01 05:35:53;;;;;;;3.33;1.23;;;;;;;;;;4989984;28;20105;-68
2022/04/01 05:38:20;;;;;;;6.93;1.50;;;;;;;;;;4990601;28;20050;-68
2022/04/01 05:40:46;;;;;;;5.13;1.25;;;;;;;;;;4981534;28;20113;-68
2022/04/01 05:43:13;;;;;;;3.45;1.27;;;;;;;;;;4987801;28;20050;-68
2022/04/01 05:45:42;;;;;;;4.30;1.17;;;;;;;;;;4983754;28;20078;-68
2022/04/01 05:48:09;;;;;;;4.07;1.33;;;;;;;;;;4988590;28;20054;-68
2022/04/01 05:50:37;;;;;;;3.35;1.48;;;;;;;;;;4984359;28;20045;-68
2022/04/01 05:53:03;;;;;;;4.63;1.20;;;;;;;;;;4985752;28;20066;-68
2022/04/01 05:55:30;;;;;;;3.55;1.20;;;;;;;;;;4976997;28;20051;-68
2022/04/01 05:57:56;;;;;;;5.10;1.30;;;;;;;;;;4960740;28;20047;-68
2022/04/01 06:00:22;;;;;;;7.22;2.65;;;;;;;;;;4996035;28;20125;-69
2022/04/01 06:03:06;;;;;;;4.97;1.98;;;;;;;;;;4994859;28;20437;-68
2022/04/01 06:05:36;;;;;;;6.85;1.75;;;;;;;;;;4993007;28;20100;-69
2022/04/01 06:08:17;;;;;;;3.70;1.00;;;;;;;;;;4982973;28;20064;-69
2022/04/01 06:10:52;;;;;;;5.57;1.80;;;;;;;;;;4976792;28;20498;-68
2022/04/01 06:13:37;;;;;;;2.78;1.20;;;;;;;;;;4983321;28;20045;-68
2022/04/01 06:16:20;;;;;;;4.03;1.40;;;;;;;;;;4975585;28;20043;-68
2022/04/01 06:18:49;;;;;;;3.20;0.90;;;;;;;;;;4993275;28;20050;-67
2022/04/01 06:21:21;;;;;;;3.88;1.05;;;;;;;;;;4980808;28;20053;-68
2022/04/01 06:23:50;;;;;;;3.17;1.02;;;;;;;;;;4994610;28;20073;-68
2022/04/01 06:26:17;;;;;;;4.03;0.80;;;;;;;;;;4995752;28;20042;-68
2022/04/01 06:29:09;;;;;;;4.88;1.10;;;;;;;;;;4993782;28;20494;-68
2022/04/01 06:31:35;;;;;;;2.63;0.85;;;;;;;;;;4962502;28;20520;-68
2022/04/01 06:34:12;;;;;;;5.40;1.10;;;;;;;;;;4985873;28;20549;-68
2022/04/01 06:36:45;;;;;;;4.28;1.10;;;;;;;;;;4976953;28;20502;-68
2022/04/01 06:39:13;;;;;;;5.20;1.00;;;;;;;;;;4978689;28;20050;-67
2022/04/01 06:41:43;;;;;;;3.90;1.05;;;;;;;;;;4994716;28;20054;-68
2022/04/01 06:44:10;;;;;;;3.35;1.13;;;;;;;;;;4983411;28;20047;-69
2022/04/01 06:46:37;;;;;;;7.07;1.40;;;;;;;;;;4977369;28;20049;-68
2022/04/01 06:49:07;;;;;;;5.93;1.55;;;;;;;;;;4994537;28;20113;-68
2022/04/01 06:51:35;;;;;;;4.85;1.40;;;;;;;;;;4995503;28;20058;-68
2022/04/01 06:54:01;;;;;;;4.47;1.27;;;;;;;;;;4994401;28;20054;-68
2022/04/01 06:56:27;;;;;;;4.90;1.15;;;;;;;;;;4977077;28;20121;-68
2022/04/01 06:58:53;;;;;;;4.93;1.35;;;;;;;;;;4977244;28;20130;-68
2022/04/01 07:01:19;;;;;;;3.63;1.15;;;;;;;;;;4993725;28;20054;-69
2022/04/01 07:03:45;;;;;;;3.17;1.20;;;;;;;;;;4969627;28;20077;-70
2022/04/01 07:06:11;;;;;;;7.13;1.70;;;;;;;;;;4985027;28;20061;-69
2022/04/01 07:08:37;;;;;;;4.20;1.52;;;;;;;;;;4965986;28;20062;-71
2022/04/01 07:11:03;;;;;;;4.40;1.40;;;;;;;;;;4977463;28;20518;-70
2022/04/01 07:13:29;;;;;;;6.13;1.42;;;;;;;;;;4977678;28;20038;-69
2022/04/01 07:15:55;;;;;;;4.22;1.60;;;;;;;;;;4994497;28;20050;-69
2022/04/01 07:18:22;;;;;;;4.65;1.23;;;;;;;;;;4976815;28;20129;-69
2022/04/01 07:20:48;;;;;;;4.82;1.20;;;;;;;;;;4958906;28;20058;-70
2022/04/01 07:23:15;;;;;;;5.28;1.63;;;;;;;;;;4971969;28;20375;-70
2022/04/01 07:25:41;;;;;;;6.20;1.73;;;;;;;;;;4977741;28;20058;-70
2022/04/01 07:28:09;;;;;;;6.57;1.70;;;;;;;;;;4994872;28;20046;-71
2022/04/01 07:30:35;;;;;;;4.35;1.38;;;;;;;;;;4993604;28;20050;-69
2022/04/01 07:33:03;;;;;;;3.70;1.30;;;;;;;;;;4994803;28;20043;-70
2022/04/01 07:35:30;;;;;;;5.00;1.60;;;;;;;;;;4989392;28;20153;-70
2022/04/01 07:37:56;;;;;;;2.63;1.00;;;;;;;;;;4990152;28;20172;-69
2022/04/01 07:40:24;;;;;;;4.38;1.30;;;;;;;;;;4961964;28;20062;-72
2022/04/01 07:42:50;;;;;;;3.90;1.60;;;;;;;;;;4984074;28;20497;-68
2022/04/01 07:45:16;;;;;;;4.10;1.50;;;;;;;;;;4994023;28;20054;-71
2022/04/01 07:47:44;;;;;;;5.63;1.60;;;;;;;;;;4985966;28;20497;-70
2022/04/01 07:50:10;;;;;;;6.30;2.17;;;;;;;;;;4974955;28;20046;-69
2022/04/01 07:52:40;;;;;;;4.00;1.15;;;;;;;;;;4974671;28;20529;-71
2022/04/01 07:55:06;;;;;;;3.92;1.33;;;;;;;;;;4974993;28;20047;-71
2022/04/01 07:57:32;;;;;;;5.60;2.00;;;;;;;;;;4990444;28;20117;-70
2022/04/01 07:59:58;;;;;;;7.53;2.17;;;;;;;;;;4994055;28;20097;-72
2022/04/01 08:02:24;;;;;;;6.55;2.70;;;;;;;;;;4993649;28;20049;-70
2022/04/01 08:04:50;;;;;;;6.20;2.50;;;;;;;;;;4994346;28;20050;-69
2022/04/01 08:07:17;;;;;;;6.65;2.40;;;;;;;;;;4992337;28;20387;-68
2022/04/01 08:09:44;;;;;;;5.15;2.05;;;;;;;;;;4993728;28;20050;-70
2022/04/01 08:12:10;;;;;;;5.40;2.20;;;;;;;;;;4992675;28;20049;-69
2022/04/01 08:14:37;;;;;;;5.90;2.45;;;;;;;;;;4993868;28;20501;-69
2022/04/01 08:17:04;;;;;;;6.55;2.80;;;;;;;;;;4993291;28;20060;-71
2022/04/01 08:19:30;;;;;;;6.57;2.38;;;;;;;;;;4993802;28;20405;-70
2022/04/01 08:21:57;;;;;;;6.28;2.72;;;;;;;;;;4993979;28;20046;-71
2022/04/01 08:24:24;;;;;;;5.65;2.53;;;;;;;;;;4984937;28;20082;-75
2022/04/01 08:26:51;;;;;;;5.93;2.20;;;;;;;;;;4988837;28;20049;-68
2022/04/01 08:29:17;;;;;;;6.22;2.85;;;;;;;;;;4993467;28;20046;-70
2022/04/01 08:31:43;;;;;;;6.10;2.70;;;;;;;;;;4977731;28;20125;-70
2022/04/01 08:34:10;;;;;;;7.15;3.05;;;;;;;;;;4991430;28;20038;-70
2022/04/01 08:36:36;;;;;;;6.05;2.60;;;;;;;;;;4990900;28;20493;-70
2022/04/01 08:39:02;;;;;;;9.30;3.45;;;;;;;;;;4981160;28;20051;-70
2022/04/01 08:41:28;;;;;;;6.82;2.60;;;;;;;;;;4985858;28;20084;-69
2022/04/01 08:43:54;;;;;;;6.78;2.75;;;;;;;;;;4979980;28;20054;-71
2022/04/01 08:46:21;;;;;;;6.25;3.33;;;;;;;;;;4974021;28;20536;-70
2022/04/01 08:48:48;;;;;;;7.72;3.95;;;;;;;;;;4957331;28;20086;-73
2022/04/01 08:51:14;;;;;;;7.03;3.50;;;;;;;;;;4974085;28;20046;-70
2022/04/01 08:53:42;;;;;;;8.82;3.78;;;;;;;;;;4981688;28;20104;-71
2022/04/01 08:56:08;;;;;;;10.30;3.47;;;;;;;;;;4991347;28;20072;-70
2022/04/01 08:58:34;;;;;;;9.70;3.65;;;;;;;;;;4985143;28;20051;-69
2022/04/01 09:01:02;;;;;;;13.40;3.42;;;;;;;;;;4973995;28;20043;-71
2022/04/01 09:03:28;;;;;;;8.55;3.50;;;;;;;;;;4973800;28;20494;-72
2022/04/01 09:05:56;;;;;;;7.35;3.25;;;;;;;;;;4980346;28;20461;-69
2022/04/01 09:08:26;;;;;;;7.85;4.38;;;;;;;;;;4974934;28;20078;-71
2022/04/01 09:11:07;;;;;;;8.43;4.05;;;;;;;;;;4974461;28;20051;-70
2022/04/01 09:13:35;;;;;;;8.27;3.47;;;;;;;;;;4974233;28;20475;-69
2022/04/01 09:16:02;;;;;;;9.32;4.07;;;;;;;;;;4991332;28;20046;-71
2022/04/01 09:18:34;;;;;;;9.07;4.53;;;;;;;;;;4973791;28;20058;-72
2022/04/01 09:21:00;;;;;;;7.07;3.63;;;;;;;;;;4981152;28;20038;-73
2022/04/01 09:23:26;;;;;;;8.15;4.55;;;;;;;;;;4991501;28;20566;-69
2022/04/01 09:25:52;;;;;;;8.50;4.13;;;;;;;;;;4993592;28;20518;-69
2022/04/01 09:28:29;;;;;;;6.97;3.70;;;;;;;;;;4996954;28;20552;-69
2022/04/01 09:31:12;;;;;;;8.43;4.13;;;;;;;;;;4979500;28;20045;-69
2022/04/01 09:33:47;;;;;;;7.72;4.28;;;;;;;;;;4963386;28;20042;-69
2022/04/01 09:36:16;;;;;;;7.88;3.83;;;;;;;;;;4977325;28;20050;-69
2022/04/01 09:39:03;;;;;;;8.38;4.32;;;;;;;;;;4977403;28;20085;-68
2022/04/01 09:41:50;;;;;;;8.88;4.55;;;;;;;;;;4969561;28;20055;-68
2022/04/01 09:44:22;;;;;;;10.65;5.43;;;;;;;;;;4977157;28;20046;-68
2022/04/01 09:46:49;;;;;;;10.77;6.15;;;;;;;;;;4977577;28;20042;-67
2022/04/01 09:49:29;;;;;;;7.90;5.00;;;;;;;;;;4977232;28;20046;-69
2022/04/01 09:51:55;;;;;;;14.10;5.15;;;;;;;;;;4977507;28;20058;-68
2022/04/01 09:54:23;;;;;;;16.02;5.60;;;;;;;;;;4976973;28;20109;-69
2022/04/01 09:56:54;;;;;;;10.77;6.30;;;;;;;;;;4978727;28;20089;-69
2022/04/01 09:59:21;;;;;;;7.22;4.47;;;;;;;;;;4979616;28;20122;-69
2022/04/01 10:01:47;;;;;;;8.65;4.85;;;;;;;;;;4977077;28;20395;-69
2022/04/01 10:04:13;;;;;;;10.13;6.28;;;;;;;;;;4976246;28;20054;-69
2022/04/01 10:06:40;;;;;;;10.32;5.13;;;;;;;;;;4982651;28;20133;-69
2022/04/01 10:09:10;;;;;;;9.35;5.05;;;;;;;;;;4991261;28;20110;-69
2022/04/01 10:11:37;;;;;;;9.45;5.55;;;;;;;;;;4984617;28;20050;-66
2022/04/01 10:14:08;;;;;;;10.38;4.97;;;;;;;;;;4980533;28;20491;-69
2022/04/01 10:16:36;;;;;;;8.88;4.85;;;;;;;;;;4978747;28;20082;-69
2022/04/01 10:19:11;;;;;;;7.20;3.85;;;;;;;;;;4978722;28;20047;-69
2022/04/01 10:21:40;;;;;;;8.75;4.30;;;;;;;;;;4982879;28;20501;-68
2022/04/01 10:24:22;;;;;;;10.15;4.60;;;;;;;;;;4995042;28;20046;-68
2022/04/01 10:27:11;;;;;;;10.63;5.05;;;;;;;;;;4988743;28;20074;-68
2022/04/01 10:29:38;;;;;;;7.82;3.65;;;;;;;;;;4971234;28;20058;-68
2022/04/01 10:32:23;;;;;;;7.68;4.53;;;;;;;;;;4983234;28;20074;-68
2022/04/01 10:34:49;;;;;;;8.30;3.85;;;;;;;;;;4979907;28;20414;-68
2022/04/01 10:37:17;;;;;;;9.15;3.63;;;;;;;;;;4993675;28;20042;-68
2022/04/01 10:39:54;;;;;;;8.10;4.40;;;;;;;;;;4995792;28;20089;-66
2022/04/01 10:42:24;;;;;;;9.73;3.40;;;;;;;;;;4995064;28;20543;-67
2022/04/01 10:44:52;;;;;;;8.30;4.20;;;;;;;;;;4995484;28;20054;-68
2022/04/01 10:47:18;;;;;;;8.30;3.80;;;;;;;;;;4977113;28;20065;-68
2022/04/01 10:52:30;;;;;;;7.82;3.35;;;;;;;;;;4984991;28;20054;-67
2022/04/01 10:55:10;;;;;;;5.47;2.92;;;;;;;;;;4987123;28;20068;-68
2022/04/01 10:57:47;;;;;;;6.25;3.65;;;;;;;;;;4990510;28;20057;-67
2022/04/01 11:00:15;;;;;;;8.82;3.60;;;;;;;;;;4966227;28;20055;-68
2022/04/01 11:02:45;;;;;;;7.93;2.65;;;;;;;;;;4980635;28;20386;-68
2022/04/01 11:05:24;;;;;;;7.20;2.67;;;;;;;;;;4977857;28;20054;-68
2022/04/01 11:08:09;;;;;;;7.72;2.75;;;;;;;;;;4975517;28;20126;-68
2022/04/01 11:10:35;;;;;;;7.00;2.67;;;;;;;;;;4962589;28;20089;-68
2022/04/01 11:13:01;;;;;;;6.43;2.65;;;;;;;;;;4994969;28;20101;-67
2022/04/01 11:15:28;;;;;;;5.13;1.90;;;;;;;;;;4993871;28;20121;-68
2022/04/01 11:17:57;;;;;;;7.60;2.58;;;;;;;;;;4994895;28;20049;-68
2022/04/01 11:20:29;;;;;;;8.73;2.90;;;;;;;;;;4979611;28;20502;-69
2022/04/01 11:22:56;;;;;;;6.93;2.70;;;;;;;;;;4992594;28;20050;-69
2022/04/01 11:25:23;;;;;;;6.43;2.58;;;;;;;;;;4991282;28;20421;-69
2022/04/01 11:28:11;;;;;;;6.68;2.85;;;;;;;;;;4975332;28;20062;-67
2022/04/01 11:30:37;;;;;;;7.28;3.40;;;;;;;;;;4973173;28;20054;-68
2022/04/01 11:33:03;;;;;;;7.90;3.25;;;;;;;;;;4977210;28;20070;-68
2022/04/01 11:35:30;;;;;;;7.28;2.45;;;;;;;;;;4977050;28;20060;-68
2022/04/01 11:37:56;;;;;;;6.85;3.05;;;;;;;;;;4994555;28;20042;-68
2022/04/01 11:40:27;;;;;;;7.22;3.05;;;;;;;;;;4975002;28;20080;-68
2022/04/01 11:43:02;;;;;;;6.03;2.15;;;;;;;;;;4994168;28;20049;-68
2022/04/01 11:45:30;;;;;;;6.03;2.33;;;;;;;;;;4992222;28;20034;-69
2022/04/01 11:47:56;;;;;;;5.65;2.30;;;;;;;;;;4975879;28;20057;-68
2022/04/01 11:50:23;;;;;;;5.50;2.20;;;;;;;;;;4975240;28;20039;-69
2022/04/01 11:52:50;;;;;;;4.57;1.65;;;;;;;;;;4974853;28;20047;-68
2022/04/01 11:55:21;;;;;;;4.90;1.83;;;;;;;;;;4977542;28;20043;-68
2022/04/01 11:57:47;;;;;;;4.03;1.60;;;;;;;;;;4989317;28;20413;-68
2022/04/01 12:00:15;;;;;;;3.97;1.85;;;;;;;;;;4993510;28;20121;-68
2022/04/01 12:02:42;;;;;;;6.00;2.22;;;;;;;;;;4990952;28;20444;-68
2022/04/01 12:05:08;;;;;;;5.25;1.83;;;;;;;;;;4973613;28;20039;-68
2022/04/01 12:10:20;;;;;;;5.22;2.40;;;;;;;;;;4983389;28;20501;-68
2022/04/01 12:12:53;;;;;;;4.28;1.30;;;;;;;;;;4993207;28;20050;-69
2022/04/01 12:15:29;;;;;;;5.65;2.25;;;;;;;;;;4975370;28;20038;-68
2022/04/01 12:17:55;;;;;;;4.80;1.88;;;;;;;;;;4986183;28;20039;-68
2022/04/01 12:20:21;;;;;;;5.72;2.15;;;;;;;;;;4983169;28;20046;-69
2022/04/01 12:22:50;;;;;;;4.72;1.38;;;;;;;;;;4982786;28;20038;-68
2022/04/01 12:25:16;;;;;;;4.90;1.80;;;;;;;;;;4986133;28;20318;-69
2022/04/01 12:27:52;;;;;;;7.40;1.95;;;;;;;;;;4968392;28;20097;-68
2022/04/01 12:30:33;;;;;;;5.40;1.60;;;;;;;;;;4982231;28;20038;-69
2022/04/01 12:33:00;;;;;;;6.35;1.58;;;;;;;;;;4981341;28;20053;-69
2022/04/01 12:35:27;;;;;;;5.90;1.85;;;;;;;;;;4982227;28;20046;-68
2022/04/01 12:38:02;;;;;;;5.57;1.80;;;;;;;;;;4978103;28;20156;-69
2022/04/01 12:40:33;;;;;;;4.80;1.95;;;;;;;;;;4979496;28;20106;-69
2022/04/01 12:42:59;;;;;;;4.97;1.65;;;;;;;;;;4982446;28;20402;-68
2022/04/01 12:45:25;;;;;;;5.38;1.73;;;;;;;;;;4981993;28;20034;-68
2022/04/01 12:47:51;;;;;;;4.15;1.23;;;;;;;;;;4989197;28;20049;-68
2022/04/01 12:50:31;;;;;;;4.30;1.55;;;;;;;;;;4986650;28;20061;-68
2022/04/01 12:53:12;;;;;;;4.40;1.67;;;;;;;;;;4968053;28;20050;-68
2022/04/01 12:55:38;;;;;;;4.63;1.25;;;;;;;;;;4975757;28;20053;-68
2022/04/01 12:58:09;;;;;;;5.70;1.70;;;;;;;;;;4991101;28;20042;-68
2022/04/01 13:00:35;;;;;;;5.23;1.63;;;;;;;;;;4977367;28;20415;-68
2022/04/01 13:03:01;;;;;;;5.30;2.00;;;;;;;;;;4974194;28;20634;-68
2022/04/01 13:05:27;;;;;;;3.55;1.50;;;;;;;;;;4993120;28;20505;-68
2022/04/01 13:07:53;;;;;;;6.72;1.55;;;;;;;;;;4993262;28;20055;-68
2022/04/01 13:10:21;;;;;;;4.97;1.60;;;;;;;;;;4982600;28;20133;-69
2022/04/01 13:12:51;;;;;;;4.45;1.50;;;;;;;;;;4993250;28;20051;-69
2022/04/01 13:15:18;;;;;;;4.30;1.50;;;;;;;;;;4979083;28;20493;-68
2022/04/01 13:17:51;;;;;;;6.82;1.63;;;;;;;;;;4977606;28;20145;-68
2022/04/01 13:20:25;;;;;;;4.72;1.98;;;;;;;;;;4944713;28;20171;-68
2022/04/01 13:22:51;;;;;;;5.97;2.05;;;;;;;;;;4980668;28;20502;-68
2022/04/01 13:25:18;;;;;;;3.08;1.25;;;;;;;;;;4973488;28;20600;-68
2022/04/01 13:27:45;;;;;;;5.07;1.85;;;;;;;;;;4974483;28;20407;-68
2022/04/01 13:30:11;;;;;;;6.43;1.92;;;;;;;;;;4978253;28;20077;-68
2022/04/01 13:32:38;;;;;;;4.63;1.52;;;;;;;;;;4991175;28;20643;-68
2022/04/01 13:35:04;;;;;;;7.28;1.80;;;;;;;;;;4992706;28;20078;-68
2022/04/01 13:37:30;;;;;;;5.43;1.70;;;;;;;;;;4977023;28;20039;-68
2022/04/01 13:39:56;;;;;;;6.45;2.10;;;;;;;;;;4986181;28;20050;-68
2022/04/01 13:42:26;;;;;;;4.63;1.77;;;;;;;;;;4975196;28;20101;-68
2022/04/01 13:44:52;;;;;;;6.43;1.80;;;;;;;;;;4989497;28;20129;-68
2022/04/01 13:47:19;;;;;;;5.40;1.70;;;;;;;;;;4988906;28;20497;-69
2022/04/01 13:49:45;;;;;;;6.25;2.20;;;;;;;;;;4973862;28;20051;-68
2022/04/01 13:52:11;;;;;;;4.30;1.80;;;;;;;;;;4980159;28;20152;-68
2022/04/01 13:54:39;;;;;;;4.97;1.60;;;;;;;;;;4973340;28;20486;-69
2022/04/01 13:57:05;;;;;;;5.28;1.80;;;;;;;;;;4985243;28;20042;-68
2022/04/01 13:59:31;;;;;;;6.15;1.92;;;;;;;;;;4968661;28;20053;-68
2022/04/01 14:01:58;;;;;;;4.25;1.55;;;;;;;;;;4981526;28;20130;-69
2022/04/01 14:04:24;;;;;;;5.78;1.38;;;;;;;;;;4983426;28;20042;-68
2022/04/01 14:06:50;;;;;;;7.25;2.20;;;;;;;;;;4993791;28;20062;-68
2022/04/01 14:09:22;;;;;;;5.50;2.00;;;;;;;;;;5002304;28;20050;-68
2022/04/01 14:11:48;;;;;;;;;;;;;;;;;;4987553;28;20129;-68
2022/04/01 14:14:14;;;;;;;4.25;1.92;;;;;;;;;;4979711;28;20010;-69
2022/04/01 14:16:43;;;;;;;5.72;2.10;;;;;;;;;;4990446;28;20042;-69
2022/04/01 14:19:09;;;;;;;3.58;1.60;;;;;;;;;;4963735;28;20061;-69
2022/04/01 14:21:36;;;;;;;4.40;1.58;;;;;;;;;;4984377;28;20077;-68
2022/04/01 14:24:02;;;;;;;3.40;1.42;;;;;;;;;;4982349;28;20053;-67
2022/04/01 14:26:31;;;;;;;5.15;1.70;;;;;;;;;;4986743;28;20053;-69
2022/04/01 14:30:18;;;;;;;8.50;1.73;;;;;;;;;;4962933;28;20043;-68
2022/04/01 14:32:00;;;;;;;4.82;1.60;;;;;;;;;;4981190;28;20428;-68
2022/04/01 14:34:26;;;;;;;8.38;1.83;;;;;;;;;;4963185;28;20042;-68
2022/04/01 14:36:53;;;;;;;6.65;1.95;;;;;;;;;;4980938;28;20103;-68
2022/04/01 14:39:19;;;;;;;5.25;1.90;;;;;;;;;;4977409;28;20070;-69
2022/04/01 14:41:45;;;;;;;5.70;1.90;;;;;;;;;;4982118;28;20076;-68
2022/04/01 14:44:11;;;;;;;8.75;2.05;;;;;;;;;;4988326;28;20042;-69
2022/04/01 14:46:40;;;;;;;6.88;2.17;;;;;;;;;;4985339;28;20101;-69
2022/04/01 14:49:06;;;;;;;5.43;1.73;;;;;;;;;;4983162;28;20055;-69
2022/04/01 14:51:32;;;;;;;5.30;1.83;;;;;;;;;;4980540;28;20038;-69
2022/04/01 14:53:59;;;;;;;5.80;2.00;;;;;;;;;;4984343;28;20053;-67
2022/04/01 14:56:25;;;;;;;3.65;1.60;;;;;;;;;;4981298;28;20039;-68
2022/04/01 14:58:51;;;;;;;5.18;1.40;;;;;;;;;;4994150;28;20766;-68
2022/04/01 15:01:17;;;;;;;4.70;1.80;;;;;;;;;;4990972;28;20070;-68
2022/04/01 15:03:43;;;;;;;4.05;1.45;;;;;;;;;;4978879;28;20565;-69